Star Alliance - EISG Airport Info

    EISG (Sligo Airport)  Login to use Map Selector

  ALLIANCE AIRCRAFT AT THIS AIRPORT
Tail Number Aircraft ModelFlightsRunwayRangeCapacityPaxSale
EI-CJACessna Citation CJ4 (MSFS) 03130ft2085nm500Kg10No
  RUNWAY INFORMATION    |    Airport Elevation : 11ft    |    LAT : 54.280200958252  /  LON : -8.59920978546143
Runway Number 11 / 29 Runway Width 98' Runway Length 3933'
Lighted Runway Yes Runway StatusOpen Runway Surface Asphalt
  CLOSE ALTERNATE AIRPORTS
ICAODistanceAirport NameLongest RWRW SurfaceMAP
EIKN23NMConnaught7550FTAsphalt
EGAB34NMSt Angelo Airport4350FTAsphalt
EIDL47NMDonegal Airport4908FTAsphalt
EICM60NMGalway Airport4425FTAsphalt
EGAE68NMEglinton6076FTAsphalt
EGAA86NMBelfast International Airport9121FTAsphalt
EIWT93NMWeston Airport3038FTDirt
EINN95NMShannon Airport10495FTAsphalt
EIME96NMCasement Air Base6001FTConcrete
EIDW97NMDublin Airport8652FTConcrete
EGAC97NMGeorge Best Belfast City Airport6001FTConcrete
EGAD103NMNewtownards Airport3346FTAsphalt
EIKL108NMKilkenny3104FTDirt
  AIRPORT WEATHER
45°F | 7°C
Temperature
87%
Humidity
29.41" | 0mb
Pressure
6sm
Visibility
MVFR
Flight Rules
SCT @ 1500ft
Initial Clouds
FAIR
Conditions
Wind Info
11/27/22 19:30Z
Updated

EISG 271930Z 12010G20KT 090V160 9999 SCT015 BKN022 OVC048 07/05 Q0996
  AIRPORT FREQUENCIES
NameFrequency
CLEARANCE122.100
GROUND122.100
TOWER122.100
  PILOT ENTERED AIRPORT INFORMATION SEE ALL PILOT ENTERED AIRPORT INFO

Powered by Virtual Airlines Manager